Time;durP1;ratioP1;P1;durP2;ratioP2;P2;SDS_P1;SDS_P2;PMS_P1;PMS_P2;Temp;Humidity;BMP_temperature;BMP_pressure;BME280_temperature;BME280_humidity;BME280_pressure;Samples;Min_cycle;Max_cycle;Signal;HPM_P1;HPM_P2
2022/08/22 00:01:34;;;;;;;;;1.00;1.00;;;;;;;;4974839;28;46984;-74
2022/08/22 00:04:10;;;;;;;;;3.00;2.00;;;;;;;;4974612;28;45699;-74
2022/08/22 00:06:59;;;;;;;;;5.67;1.33;;;;;;;;5004185;28;45544;-75
2022/08/22 00:09:28;;;;;;;;;2.67;0.33;;;;;;;;5034585;28;45544;-74
2022/08/22 00:11:56;;;;;;;;;3.67;2.00;;;;;;;;5034276;28;46292;-75
2022/08/22 00:15:00;;;;;;;;;4.33;1.33;;;;;;;;5034450;28;45326;-74
2022/08/22 00:17:26;;;;;;;;;2.67;2.33;;;;;;;;4965603;28;45547;-75
2022/08/22 00:19:59;;;;;;;;;1.00;1.00;;;;;;;;4974262;28;45769;-75
2022/08/22 00:22:30;;;;;;;;;3.33;2.00;;;;;;;;4974953;28;46862;-75
2022/08/22 00:25:21;;;;;;;;;3.00;3.00;;;;;;;;4974402;28;45303;-75
2022/08/22 00:27:57;;;;;;;;;2.33;2.00;;;;;;;;4974975;28;45506;-76
2022/08/22 00:30:23;;;;;;;;;1.67;1.00;;;;;;;;4974773;28;45429;-76
2022/08/22 00:32:51;;;;;;;;;3.00;2.00;;;;;;;;4974318;28;45358;-75
2022/08/22 00:35:17;;;;;;;;;3.33;1.33;;;;;;;;4974588;28;45413;-76
2022/08/22 00:37:46;;;;;;;;;5.33;2.00;;;;;;;;4974424;28;45559;-75
2022/08/22 00:40:40;;;;;;;;;2.00;2.00;;;;;;;;4970619;28;45460;-75
2022/08/22 00:43:08;;;;;;;;;5.00;2.00;;;;;;;;4974385;28;45431;-75
2022/08/22 00:45:36;;;;;;;;;1.67;1.67;;;;;;;;4974594;28;45396;-75
2022/08/22 00:48:04;;;;;;;;;3.00;1.00;;;;;;;;5011114;28;45295;-75
2022/08/22 00:50:57;;;;;;;;;3.00;1.00;;;;;;;;5076352;27;46043;-76
2022/08/22 00:53:28;;;;;;;;;2.67;1.33;;;;;;;;5076563;27;46470;-76
2022/08/22 00:56:12;;;;;;;;;1.00;1.00;;;;;;;;5075847;27;45320;-75
2022/08/22 00:58:49;;;;;;;;;1.67;1.67;;;;;;;;5076510;28;45502;-75
2022/08/22 01:01:18;;;;;;;;;3.00;2.00;;;;;;;;5063146;27;45428;-76
2022/08/22 01:03:45;;;;;;;;;2.00;2.00;;;;;;;;5075758;27;47214;-76
2022/08/22 01:06:27;;;;;;;;;2.00;2.00;;;;;;;;5075871;27;45458;-76
2022/08/22 01:09:01;;;;;;;;;2.33;2.00;;;;;;;;5076325;28;45424;-75
2022/08/22 01:11:38;;;;;;;;;3.00;1.33;;;;;;;;5063432;27;45432;-76
2022/08/22 01:14:18;;;;;;;;;1.00;1.00;;;;;;;;5076233;27;46142;-75
2022/08/22 01:17:02;;;;;;;;;2.67;2.67;;;;;;;;5075475;27;45290;-76
2022/08/22 01:19:57;;;;;;;;;2.33;1.00;;;;;;;;5069569;27;45327;-76
2022/08/22 01:22:22;;;;;;;;;3.00;2.00;;;;;;;;5065039;28;45209;-74
2022/08/22 01:25:19;;;;;;;;;2.00;2.00;;;;;;;;5074739;27;46133;-75
2022/08/22 01:28:01;;;;;;;;;3.33;2.00;;;;;;;;5076356;28;45436;-74
2022/08/22 01:30:32;;;;;;;;;2.00;2.00;;;;;;;;5075368;27;45351;-74
2022/08/22 01:33:12;;;;;;;;;2.00;1.33;;;;;;;;5076158;27;45351;-74
2022/08/22 01:36:04;;;;;;;;;2.67;1.33;;;;;;;;5075642;28;45985;-75
2022/08/22 01:38:39;;;;;;;;;2.67;1.33;;;;;;;;5075749;27;45529;-75
2022/08/22 01:41:28;;;;;;;;;2.00;2.00;;;;;;;;5076245;27;46276;-75
2022/08/22 01:44:02;;;;;;;;;2.00;2.00;;;;;;;;5075037;28;45555;-75
2022/08/22 01:46:28;;;;;;;;;3.33;2.00;;;;;;;;5075253;28;46107;-74
2022/08/22 01:48:56;;;;;;;;;1.33;1.33;;;;;;;;5075550;27;45213;-75
2022/08/22 01:51:27;;;;;;;;;2.67;2.00;;;;;;;;5076071;27;45503;-74
2022/08/22 01:53:52;;;;;;;;;2.00;0.33;;;;;;;;5075297;27;45421;-74
2022/08/22 01:56:19;;;;;;;;;2.00;2.00;;;;;;;;5075086;28;46058;-75
2022/08/22 01:58:57;;;;;;;;;3.00;1.33;;;;;;;;5075243;27;45379;-75
2022/08/22 02:01:22;;;;;;;;;2.00;1.33;;;;;;;;5075746;27;45344;-75
2022/08/22 02:04:19;;;;;;;;;4.00;1.33;;;;;;;;5075335;27;45379;-75
2022/08/22 02:07:03;;;;;;;;;2.00;2.00;;;;;;;;5015839;28;45996;-75
2022/08/22 02:09:37;;;;;;;;;1.00;1.00;;;;;;;;5012647;28;45522;-75
2022/08/22 02:12:04;;;;;;;;;2.00;2.00;;;;;;;;5013023;28;45618;-75
2022/08/22 02:14:30;;;;;;;;;1.33;1.33;;;;;;;;5012161;28;45519;-74
2022/08/22 02:17:06;;;;;;;;;2.67;2.00;;;;;;;;5015579;28;45425;-73
2022/08/22 02:19:39;;;;;;;;;4.67;3.00;;;;;;;;5016222;28;45417;-75
2022/08/22 02:22:23;;;;;;;;;2.00;2.00;;;;;;;;5016577;28;45432;-74
2022/08/22 02:24:48;;;;;;;;;1.67;1.67;;;;;;;;5016003;28;45480;-74
2022/08/22 02:27:16;;;;;;;;;3.00;2.00;;;;;;;;5016038;28;45605;-74
2022/08/22 02:29:47;;;;;;;;;2.00;2.00;;;;;;;;5015467;28;46104;-74
2022/08/22 02:32:27;;;;;;;;;2.00;2.00;;;;;;;;5016270;28;45344;-75
2022/08/22 02:35:04;;;;;;;;;3.33;1.00;;;;;;;;5015645;28;45454;-74
2022/08/22 02:37:38;;;;;;;;;3.33;2.00;;;;;;;;5015995;28;46253;-75
2022/08/22 02:40:13;;;;;;;;;2.00;2.00;;;;;;;;5015665;28;45384;-75
2022/08/22 02:42:51;;;;;;;;;2.00;2.00;;;;;;;;5049777;27;45333;-75
2022/08/22 02:45:25;;;;;;;;;1.67;1.67;;;;;;;;5078595;27;45367;-74
2022/08/22 02:47:55;;;;;;;;;1.67;1.67;;;;;;;;5078165;28;46372;-74
2022/08/22 02:50:50;;;;;;;;;2.67;1.00;;;;;;;;5078549;27;45609;-75
2022/08/22 02:53:15;;;;;;;;;1.33;1.33;;;;;;;;5004659;28;45316;-75
2022/08/22 02:56:09;;;;;;;;;2.00;2.00;;;;;;;;5001627;28;45290;-75
2022/08/22 02:58:53;;;;;;;;;1.33;1.33;;;;;;;;4975193;28;47332;-74
2022/08/22 03:01:28;;;;;;;;;1.00;1.00;;;;;;;;4981765;28;45392;-75
2022/08/22 03:04:12;;;;;;;;;1.33;1.33;;;;;;;;4980875;28;45396;-75
2022/08/22 03:06:42;;;;;;;;;2.67;2.67;;;;;;;;4968081;28;45488;-75
2022/08/22 03:09:07;;;;;;;;;3.00;2.00;;;;;;;;4975816;28;46192;-74
2022/08/22 03:11:36;;;;;;;;;3.50;2.00;;;;;;;;4975946;28;45300;-75
2022/08/22 03:14:01;;;;;;;;;3.67;3.00;;;;;;;;4976238;28;45543;-75
2022/08/22 03:16:43;;;;;;;;;2.00;1.33;;;;;;;;4989021;28;45369;-75
2022/08/22 03:19:47;;;;;;;;;4.00;2.00;;;;;;;;4980265;28;46197;-74
2022/08/22 03:22:12;;;;;;;;;2.67;1.67;;;;;;;;4917571;28;45285;-74
2022/08/22 03:24:58;;;;;;;;;4.33;3.00;;;;;;;;4917791;28;45412;-74
2022/08/22 03:27:43;;;;;;;;;1.00;1.00;;;;;;;;4916280;28;45479;-75
2022/08/22 03:30:08;;;;;;;;;4.00;3.00;;;;;;;;4940315;28;45377;-75
2022/08/22 03:32:49;;;;;;;;;2.00;2.00;;;;;;;;4947807;28;45468;-75
2022/08/22 03:35:22;;;;;;;;;1.00;1.00;;;;;;;;4979256;28;45553;-75
2022/08/22 03:37:51;;;;;;;;;2.00;2.00;;;;;;;;4995268;28;45415;-75
2022/08/22 03:40:18;;;;;;;;;1.00;1.00;;;;;;;;4994342;28;46946;-75
2022/08/22 03:42:59;;;;;;;;;1.33;1.33;;;;;;;;4995391;28;45412;-75
2022/08/22 03:45:24;;;;;;;;;2.33;2.33;;;;;;;;4995040;28;45526;-75
2022/08/22 03:47:58;;;;;;;;;4.00;2.00;;;;;;;;4994950;28;45479;-75
2022/08/22 03:50:23;;;;;;;;;3.00;2.67;;;;;;;;4995104;28;46066;-74
2022/08/22 03:53:07;;;;;;;;;2.33;2.33;;;;;;;;5030642;27;45388;-73
2022/08/22 03:55:44;;;;;;;;;2.00;1.00;;;;;;;;5076743;27;45308;-75
2022/08/22 03:58:24;;;;;;;;;3.67;1.33;;;;;;;;5077405;27;45330;-74
2022/08/22 04:00:49;;;;;;;;;3.00;2.00;;;;;;;;5077149;27;45268;-75
2022/08/22 04:03:18;;;;;;;;;2.33;2.00;;;;;;;;5076856;27;45287;-75
2022/08/22 04:05:43;;;;;;;;;3.67;2.00;;;;;;;;5077205;27;45316;-75
2022/08/22 04:08:08;;;;;;;;;4.67;2.67;;;;;;;;5077272;27;45593;-73
2022/08/22 04:10:50;;;;;;;;;2.67;1.33;;;;;;;;5076407;28;46187;-74
2022/08/22 04:13:34;;;;;;;;;2.00;2.00;;;;;;;;5057004;28;45465;-74
2022/08/22 04:15:59;;;;;;;;;3.00;2.67;;;;;;;;5077441;28;45302;-75
2022/08/22 04:18:51;;;;;;;;;2.33;1.67;;;;;;;;5077192;27;45263;-74
2022/08/22 04:21:19;;;;;;;;;2.00;2.00;;;;;;;;5077120;27;47246;-75
2022/08/22 04:23:47;;;;;;;;;3.00;1.33;;;;;;;;5065616;27;45447;-75
2022/08/22 04:26:16;;;;;;;;;3.00;3.00;;;;;;;;5076277;27;45360;-75
2022/08/22 04:28:41;;;;;;;;;4.67;1.33;;;;;;;;5076907;27;45371;-74
2022/08/22 04:31:06;;;;;;;;;1.67;1.33;;;;;;;;5076577;28;45390;-74
2022/08/22 04:33:36;;;;;;;;;2.00;2.00;;;;;;;;5076878;27;45236;-74
2022/08/22 04:36:02;;;;;;;;;2.33;2.00;;;;;;;;5076498;28;45502;-75
2022/08/22 04:38:59;;;;;;;;;3.67;3.67;;;;;;;;5075471;27;45461;-74
2022/08/22 04:41:46;;;;;;;;;4.00;2.33;;;;;;;;4994248;28;46199;-74
2022/08/22 04:44:18;;;;;;;;;5.00;3.00;;;;;;;;4988870;28;45469;-75
2022/08/22 04:46:44;;;;;;;;;1.00;1.00;;;;;;;;4994294;28;45486;-75
2022/08/22 04:49:12;;;;;;;;;2.67;2.00;;;;;;;;4994228;28;45440;-74
2022/08/22 04:51:41;;;;;;;;;2.33;2.33;;;;;;;;4993622;28;46360;-73
2022/08/22 04:54:24;;;;;;;;;2.00;2.00;;;;;;;;4993438;28;45376;-74
2022/08/22 04:57:08;;;;;;;;;3.33;2.00;;;;;;;;4994142;28;45368;-75
2022/08/22 04:59:34;;;;;;;;;2.33;2.33;;;;;;;;4993829;28;45409;-74
2022/08/22 05:02:05;;;;;;;;;2.00;2.00;;;;;;;;5003578;28;46147;-75
2022/08/22 05:04:36;;;;;;;;;3.00;3.00;;;;;;;;5019855;28;45349;-74
2022/08/22 05:07:05;;;;;;;;;2.33;2.33;;;;;;;;5033514;28;45492;-74
2022/08/22 05:09:32;;;;;;;;;3.00;2.00;;;;;;;;5032977;28;45646;-75
2022/08/22 05:12:02;;;;;;;;;2.00;1.00;;;;;;;;5033788;28;45403;-74
2022/08/22 05:15:06;;;;;;;;;3.00;2.00;;;;;;;;5033339;28;45643;-74
2022/08/22 05:17:31;;;;;;;;;2.00;2.00;;;;;;;;5016116;28;45423;-75
2022/08/22 05:20:00;;;;;;;;;3.00;2.00;;;;;;;;5032733;28;45610;-74
2022/08/22 05:22:30;;;;;;;;;3.33;2.00;;;;;;;;5033127;28;46410;-74
2022/08/22 05:24:58;;;;;;;;;5.00;2.00;;;;;;;;5032630;28;45409;-74
2022/08/22 05:27:32;;;;;;;;;2.00;2.00;;;;;;;;5033471;28;45458;-74
2022/08/22 05:30:10;;;;;;;;;2.33;2.00;;;;;;;;5033408;28;45456;-74
2022/08/22 05:32:50;;;;;;;;;2.00;2.00;;;;;;;;5028322;28;46416;-75
2022/08/22 05:35:18;;;;;;;;;2.00;2.00;;;;;;;;5029506;28;45453;-74
2022/08/22 05:37:44;;;;;;;;;5.00;3.67;;;;;;;;5031358;28;45521;-75
2022/08/22 05:40:28;;;;;;;;;3.00;1.67;;;;;;;;5031193;28;45656;-74
2022/08/22 05:42:55;;;;;;;;;1.00;1.00;;;;;;;;5026492;28;46340;-76
2022/08/22 05:45:21;;;;;;;;;4.00;2.00;;;;;;;;5031049;28;45448;-75
2022/08/22 05:47:46;;;;;;;;;1.33;1.33;;;;;;;;5045083;27;45415;-74
2022/08/22 05:50:14;;;;;;;;;3.67;2.00;;;;;;;;5091362;27;45567;-74
2022/08/22 05:52:39;;;;;;;;;2.00;2.00;;;;;;;;5092912;27;45404;-75
2022/08/22 05:55:26;;;;;;;;;3.00;2.00;;;;;;;;5095689;27;45909;-75
2022/08/22 05:58:09;;;;;;;;;1.00;1.00;;;;;;;;5092199;27;45468;-75
2022/08/22 06:00:38;;;;;;;;;1.00;1.00;;;;;;;;5099631;27;45500;-76
2022/08/22 06:03:15;;;;;;;;;3.33;3.00;;;;;;;;5073805;27;46274;-75
2022/08/22 06:05:43;;;;;;;;;1.67;1.67;;;;;;;;5077626;27;46128;-74
2022/08/22 06:08:22;;;;;;;;;1.00;1.00;;;;;;;;5077837;27;45710;-75
2022/08/22 06:10:50;;;;;;;;;2.00;1.67;;;;;;;;5078415;27;45563;-74
2022/08/22 06:13:21;;;;;;;;;3.00;2.67;;;;;;;;5077954;27;45508;-76
2022/08/22 06:15:50;;;;;;;;;3.00;3.00;;;;;;;;5076212;27;45329;-75
2022/08/22 06:18:19;;;;;;;;;1.33;1.33;;;;;;;;5077744;27;45371;-75
2022/08/22 06:20:48;;;;;;;;;3.00;2.00;;;;;;;;5078020;28;45438;-75
2022/08/22 06:23:20;;;;;;;;;2.00;2.00;;;;;;;;5078161;27;46199;-76
2022/08/22 06:25:48;;;;;;;;;2.00;2.00;;;;;;;;5078026;27;45293;-79
2022/08/22 06:28:19;;;;;;;;;1.00;1.00;;;;;;;;5078480;27;45416;-75
2022/08/22 06:30:44;;;;;;;;;1.00;1.00;;;;;;;;5078767;27;45460;-75
2022/08/22 06:33:11;;;;;;;;;0.33;0.33;;;;;;;;5078775;27;46075;-75
2022/08/22 06:38:27;;;;;;;;;2.00;2.00;;;;;;;;5078839;27;45368;-76
2022/08/22 06:40:53;;;;;;;;;1.00;1.00;;;;;;;;5078827;27;45309;-76
2022/08/22 06:43:19;;;;;;;;;1.67;1.67;;;;;;;;5078309;27;45460;-76
2022/08/22 06:45:45;;;;;;;;;2.00;1.67;;;;;;;;5078511;27;45392;-76
2022/08/22 06:48:14;;;;;;;;;2.00;2.00;;;;;;;;5078842;27;45343;-77
2022/08/22 06:50:41;;;;;;;;;3.00;2.33;;;;;;;;5077937;27;45569;-76
2022/08/22 06:53:11;;;;;;;;;2.67;2.00;;;;;;;;5068649;27;45279;-76
2022/08/22 06:55:39;;;;;;;;;2.67;2.00;;;;;;;;5078405;27;45463;-74
2022/08/22 06:58:06;;;;;;;;;3.00;2.00;;;;;;;;5078511;27;45444;-74
2022/08/22 07:00:33;;;;;;;;;1.67;1.67;;;;;;;;5078518;27;45490;-75
2022/08/22 07:03:04;;;;;;;;;2.33;2.33;;;;;;;;5077726;27;45502;-75
2022/08/22 07:05:35;;;;;;;;;3.00;2.00;;;;;;;;5077638;27;45387;-76
2022/08/22 07:08:08;;;;;;;;;4.67;2.33;;;;;;;;5077896;27;45444;-75
2022/08/22 07:10:33;;;;;;;;;2.00;2.00;;;;;;;;5060313;28;45562;-74
2022/08/22 07:12:58;;;;;;;;;2.33;1.00;;;;;;;;5077714;27;45379;-75
2022/08/22 07:15:24;;;;;;;;;1.67;1.67;;;;;;;;5078255;28;45283;-76
2022/08/22 07:17:50;;;;;;;;;1.00;1.00;;;;;;;;5077798;27;45988;-75
2022/08/22 07:20:22;;;;;;;;;3.67;2.00;;;;;;;;5078166;27;45452;-74
2022/08/22 07:22:53;;;;;;;;;2.00;2.00;;;;;;;;5078261;27;46186;-76
2022/08/22 07:25:19;;;;;;;;;2.00;2.00;;;;;;;;5077807;27;45450;-75
2022/08/22 07:27:54;;;;;;;;;3.00;3.00;;;;;;;;5078094;27;45410;-75
2022/08/22 07:30:21;;;;;;;;;3.00;3.00;;;;;;;;5077813;27;45497;-74
2022/08/22 07:32:46;;;;;;;;;2.00;1.67;;;;;;;;5077290;27;46012;-76
2022/08/22 07:35:11;;;;;;;;;3.67;2.00;;;;;;;;5077521;27;45601;-75
2022/08/22 07:37:46;;;;;;;;;2.00;2.00;;;;;;;;5078323;27;45328;-75
2022/08/22 07:40:30;;;;;;;;;3.33;2.00;;;;;;;;5077887;28;45249;-75
2022/08/22 07:42:56;;;;;;;;;2.67;1.67;;;;;;;;5077409;27;47149;-75
2022/08/22 07:45:41;;;;;;;;;3.67;2.00;;;;;;;;5077743;27;45400;-75
2022/08/22 07:48:22;;;;;;;;;1.33;1.33;;;;;;;;5076872;28;45396;-76
2022/08/22 07:50:57;;;;;;;;;2.00;2.00;;;;;;;;5077363;27;45360;-75
2022/08/22 07:53:42;;;;;;;;;4.33;2.00;;;;;;;;5077158;27;46159;-75
2022/08/22 07:56:12;;;;;;;;;2.00;1.00;;;;;;;;5076967;28;45366;-75
2022/08/22 07:58:39;;;;;;;;;1.00;1.00;;;;;;;;5077569;27;45394;-75
2022/08/22 08:01:06;;;;;;;;;1.00;1.00;;;;;;;;5077526;27;45456;-75
2022/08/22 08:03:31;;;;;;;;;1.33;1.33;;;;;;;;5076618;27;47216;-75
2022/08/22 08:05:59;;;;;;;;;2.00;2.00;;;;;;;;5077271;27;45346;-75
2022/08/22 08:08:54;;;;;;;;;1.67;1.67;;;;;;;;5077440;27;45470;-75
2022/08/22 08:11:21;;;;;;;;;3.00;1.67;;;;;;;;5059643;27;45551;-75
2022/08/22 08:13:50;;;;;;;;;1.67;1.67;;;;;;;;5076448;27;46980;-75
2022/08/22 08:16:18;;;;;;;;;4.33;2.67;;;;;;;;5076596;27;45419;-75
2022/08/22 08:18:45;;;;;;;;;2.67;2.33;;;;;;;;5077627;28;45410;-75
2022/08/22 08:21:23;;;;;;;;;2.33;2.33;;;;;;;;5077370;27;45422;-75
2022/08/22 08:23:49;;;;;;;;;2.00;2.00;;;;;;;;5077115;27;46394;-75
2022/08/22 08:26:16;;;;;;;;;2.00;2.00;;;;;;;;5076780;28;45328;-74
2022/08/22 08:28:45;;;;;;;;;3.00;1.33;;;;;;;;5077416;27;45445;-75
2022/08/22 08:31:18;;;;;;;;;3.33;1.00;;;;;;;;5076525;27;45522;-76
2022/08/22 08:33:46;;;;;;;;;1.00;1.00;;;;;;;;5076621;27;47092;-75
2022/08/22 08:36:22;;;;;;;;;2.00;2.00;;;;;;;;5076773;27;45510;-75
2022/08/22 08:39:01;;;;;;;;;4.00;2.67;;;;;;;;5076983;27;45384;-75
2022/08/22 08:41:44;;;;;;;;;2.00;2.00;;;;;;;;5077160;28;45524;-75
2022/08/22 08:44:09;;;;;;;;;3.33;1.00;;;;;;;;5062933;27;46238;-77
2022/08/22 08:46:46;;;;;;;;;1.00;1.00;;;;;;;;5076212;27;45167;-76
2022/08/22 08:49:35;;;;;;;;;2.00;1.00;;;;;;;;5077109;28;45223;-76
2022/08/22 08:52:00;;;;;;;;;1.00;1.00;;;;;;;;5076916;27;45348;-76
2022/08/22 08:54:28;;;;;;;;;1.67;1.67;;;;;;;;5076329;28;46031;-76
2022/08/22 08:57:02;;;;;;;;;3.00;3.00;;;;;;;;5076515;28;45346;-75
2022/08/22 08:59:46;;;;;;;;;2.33;2.33;;;;;;;;5062666;27;45423;-75
2022/08/22 09:02:20;;;;;;;;;1.00;1.00;;;;;;;;5076119;27;45377;-75
2022/08/22 09:04:54;;;;;;;;;3.33;1.00;;;;;;;;5076196;27;46228;-76
2022/08/22 09:07:38;;;;;;;;;1.33;1.33;;;;;;;;5076301;27;45482;-75
2022/08/22 09:10:03;;;;;;;;;2.00;2.00;;;;;;;;5076176;27;45316;-75
2022/08/22 09:12:49;;;;;;;;;2.33;1.00;;;;;;;;5076643;27;45446;-75
2022/08/22 09:15:24;;;;;;;;;1.00;1.00;;;;;;;;5075883;28;46371;-76
2022/08/22 09:18:08;;;;;;;;;2.00;2.00;;;;;;;;5076344;28;45404;-75
2022/08/22 09:20:46;;;;;;;;;1.00;1.00;;;;;;;;5064361;27;45546;-75
2022/08/22 09:23:31;;;;;;;;;2.33;2.33;;;;;;;;5075878;27;45479;-75
2022/08/22 09:26:15;;;;;;;;;1.00;1.00;;;;;;;;5013133;28;46243;-75
2022/08/22 09:28:44;;;;;;;;;2.67;0.00;;;;;;;;5013278;28;45447;-75
2022/08/22 09:31:09;;;;;;;;;3.00;2.00;;;;;;;;5013272;28;45775;-75
2022/08/22 09:33:42;;;;;;;;;2.67;1.67;;;;;;;;4996772;28;45420;-75
2022/08/22 09:36:19;;;;;;;;;1.67;1.67;;;;;;;;5013248;28;46221;-75
2022/08/22 09:38:50;;;;;;;;;2.00;1.00;;;;;;;;5013232;28;45516;-75
2022/08/22 09:41:25;;;;;;;;;2.00;2.00;;;;;;;;5013787;28;45517;-75
2022/08/22 09:44:14;;;;;;;;;2.00;2.00;;;;;;;;5013059;28;45370;-75
2022/08/22 09:46:39;;;;;;;;;0.67;0.67;;;;;;;;5008165;28;46452;-76
2022/08/22 09:49:23;;;;;;;;;1.33;1.33;;;;;;;;5013234;28;45372;-75
2022/08/22 09:51:51;;;;;;;;;2.00;2.00;;;;;;;;5013581;28;45496;-75
2022/08/22 09:54:28;;;;;;;;;1.00;1.00;;;;;;;;5012686;28;45543;-76
2022/08/22 09:56:59;;;;;;;;;2.67;1.00;;;;;;;;5013111;28;45400;-75
2022/08/22 09:59:33;;;;;;;;;3.67;1.67;;;;;;;;5013006;28;45394;-75
2022/08/22 10:02:09;;;;;;;;;0.33;0.33;;;;;;;;5024642;27;45285;-75
2022/08/22 10:04:34;;;;;;;;;1.00;1.00;;;;;;;;5082229;27;45465;-75
2022/08/22 10:07:11;;;;;;;;;2.67;2.33;;;;;;;;5095869;27;46031;-75
2022/08/22 10:10:03;;;;;;;;;1.00;1.00;;;;;;;;5081910;27;45410;-75
2022/08/22 10:12:30;;;;;;;;;1.67;1.67;;;;;;;;5094311;27;45334;-75
2022/08/22 10:15:14;;;;;;;;;1.00;1.00;;;;;;;;5095689;27;45538;-75
2022/08/22 10:17:49;;;;;;;;;1.33;1.33;;;;;;;;5095929;27;46317;-74
2022/08/22 10:20:21;;;;;;;;;3.00;2.33;;;;;;;;5095883;27;45299;-75
2022/08/22 10:22:57;;;;;;;;;3.00;1.00;;;;;;;;5096128;27;45431;-74
2022/08/22 10:25:30;;;;;;;;;1.33;0.67;;;;;;;;5095733;27;45438;-75
2022/08/22 10:28:08;;;;;;;;;2.00;2.00;;;;;;;;5095587;27;45423;-76
2022/08/22 10:30:53;;;;;;;;;1.67;1.67;;;;;;;;5095497;27;45582;-75
2022/08/22 10:33:25;;;;;;;;;4.00;2.00;;;;;;;;5095433;27;45215;-75
2022/08/22 10:35:50;;;;;;;;;3.00;3.00;;;;;;;;5095758;27;45511;-74
2022/08/22 10:38:15;;;;;;;;;1.33;1.00;;;;;;;;5098706;27;46126;-74
2022/08/22 10:40:49;;;;;;;;;1.00;1.00;;;;;;;;5099101;27;45492;-74
2022/08/22 10:43:20;;;;;;;;;1.33;1.33;;;;;;;;5099534;27;45395;-75
2022/08/22 10:45:46;;;;;;;;;1.67;1.67;;;;;;;;5098628;27;45223;-75
2022/08/22 10:48:15;;;;;;;;;2.33;1.33;;;;;;;;5099032;27;47287;-75
2022/08/22 10:50:45;;;;;;;;;1.00;1.00;;;;;;;;5098772;27;45480;-75
2022/08/22 10:53:32;;;;;;;;;2.00;1.67;;;;;;;;5097885;27;45418;-74
2022/08/22 10:56:03;;;;;;;;;1.00;1.00;;;;;;;;5098749;27;45391;-75
2022/08/22 10:58:31;;;;;;;;;1.00;1.00;;;;;;;;5098669;27;47480;-75
2022/08/22 11:01:03;;;;;;;;;1.00;1.00;;;;;;;;5098745;27;45361;-75
2022/08/22 11:03:39;;;;;;;;;2.00;1.67;;;;;;;;5081315;27;45392;-75
2022/08/22 11:06:19;;;;;;;;;1.00;1.00;;;;;;;;5078172;27;45364;-76
2022/08/22 11:08:53;;;;;;;;;1.67;1.67;;;;;;;;5077868;27;45338;-75
2022/08/22 11:11:25;;;;;;;;;1.67;1.67;;;;;;;;5077572;27;45346;-75
2022/08/22 11:14:16;;;;;;;;;1.00;1.00;;;;;;;;5078282;27;45454;-75
2022/08/22 11:17:01;;;;;;;;;1.00;1.00;;;;;;;;5015040;28;45384;-76
2022/08/22 11:19:26;;;;;;;;;1.00;0.67;;;;;;;;5008227;28;45330;-75
2022/08/22 11:21:54;;;;;;;;;1.00;1.00;;;;;;;;5015305;28;45442;-76
2022/08/22 11:24:25;;;;;;;;;1.67;1.67;;;;;;;;5015072;28;45334;-74
2022/08/22 11:26:59;;;;;;;;;4.67;2.00;;;;;;;;5015347;28;45400;-76
2022/08/22 11:29:45;;;;;;;;;2.00;1.00;;;;;;;;5015453;28;45569;-75
2022/08/22 11:32:14;;;;;;;;;1.33;1.00;;;;;;;;5008101;28;45433;-75
2022/08/22 11:34:42;;;;;;;;;1.00;1.00;;;;;;;;5015210;28;45505;-75
2022/08/22 11:37:25;;;;;;;;;0.00;0.00;;;;;;;;5015418;28;45601;-76
2022/08/22 11:40:02;;;;;;;;;4.00;1.00;;;;;;;;5014503;28;46104;-76
2022/08/22 11:42:50;;;;;;;;;1.00;1.00;;;;;;;;5014772;28;45446;-75
2022/08/22 11:45:22;;;;;;;;;1.00;1.00;;;;;;;;5014845;28;45433;-75
2022/08/22 11:48:01;;;;;;;;;0.33;0.33;;;;;;;;5014537;28;45515;-76
2022/08/22 11:50:33;;;;;;;;;2.00;2.00;;;;;;;;5014801;28;47232;-75
2022/08/22 11:53:09;;;;;;;;;0.00;0.00;;;;;;;;5026507;28;45411;-75
2022/08/22 11:55:58;;;;;;;;;1.00;1.00;;;;;;;;5073651;27;45451;-75
2022/08/22 11:58:26;;;;;;;;;1.00;1.00;;;;;;;;5069047;27;45219;-76
2022/08/22 12:00:58;;;;;;;;;0.67;0.67;;;;;;;;5077252;27;46425;-75
2022/08/22 12:03:23;;;;;;;;;1.00;1.00;;;;;;;;5077341;27;45351;-75
2022/08/22 12:05:58;;;;;;;;;1.67;1.00;;;;;;;;5077120;27;45271;-74
2022/08/22 12:08:32;;;;;;;;;0.67;0.67;;;;;;;;5077012;27;45427;-75
2022/08/22 12:11:10;;;;;;;;;0.67;0.67;;;;;;;;5076921;27;46351;-75
2022/08/22 12:13:52;;;;;;;;;3.75;3.50;;;;;;;;5063666;28;45199;-75
2022/08/22 12:16:19;;;;;;;;;1.00;1.00;;;;;;;;5077181;27;45368;-76
2022/08/22 12:18:47;;;;;;;;;1.67;1.00;;;;;;;;5077182;27;45402;-75
2022/08/22 12:21:24;;;;;;;;;1.00;1.00;;;;;;;;5077109;27;46058;-75
2022/08/22 12:24:08;;;;;;;;;2.00;1.67;;;;;;;;5063301;28;45326;-74
2022/08/22 12:26:52;;;;;;;;;1.00;1.00;;;;;;;;5077034;27;45399;-76
2022/08/22 12:29:35;;;;;;;;;1.00;1.00;;;;;;;;5077328;27;45604;-75
2022/08/22 12:32:15;;;;;;;;;3.00;2.00;;;;;;;;5076758;28;47620;-75
2022/08/22 12:34:43;;;;;;;;;1.00;1.00;;;;;;;;5076754;27;45441;-74
2022/08/22 12:37:15;;;;;;;;;2.00;0.67;;;;;;;;5076362;27;45436;-75
2022/08/22 12:39:52;;;;;;;;;1.00;1.00;;;;;;;;5076816;28;45434;-75
2022/08/22 12:42:40;;;;;;;;;0.33;0.33;;;;;;;;5076611;27;47436;-75
2022/08/22 12:45:17;;;;;;;;;1.00;1.00;;;;;;;;5076718;27;45413;-75
2022/08/22 12:47:54;;;;;;;;;1.67;1.00;;;;;;;;5064549;28;45427;-75
2022/08/22 12:50:32;;;;;;;;;1.00;1.00;;;;;;;;5076576;27;45399;-75
2022/08/22 12:52:57;;;;;;;;;1.33;1.33;;;;;;;;5076108;27;46289;-75
2022/08/22 12:55:28;;;;;;;;;3.00;1.00;;;;;;;;5076422;27;45402;-75
2022/08/22 12:58:17;;;;;;;;;1.00;1.00;;;;;;;;5076912;27;45412;-75
2022/08/22 13:00:43;;;;;;;;;1.33;1.33;;;;;;;;5013632;28;45401;-75
2022/08/22 13:03:32;;;;;;;;;0.67;0.67;;;;;;;;5042679;28;46840;-74
2022/08/22 13:06:01;;;;;;;;;0.00;0.00;;;;;;;;4993275;28;45618;-75
2022/08/22 13:08:35;;;;;;;;;1.00;1.00;;;;;;;;4994103;28;45512;-74
2022/08/22 13:11:04;;;;;;;;;0.33;0.33;;;;;;;;4994015;28;45396;-74
2022/08/22 13:13:52;;;;;;;;;1.00;1.00;;;;;;;;4994098;28;45397;-75
2022/08/22 13:16:19;;;;;;;;;0.33;0.33;;;;;;;;4983475;28;45413;-74
2022/08/22 13:18:50;;;;;;;;;1.33;1.00;;;;;;;;4994166;28;45436;-75
2022/08/22 13:21:17;;;;;;;;;1.00;1.00;;;;;;;;4977260;28;45519;-74
2022/08/22 13:23:44;;;;;;;;;1.00;1.00;;;;;;;;4977290;28;45561;-74
2022/08/22 13:26:14;;;;;;;;;1.00;1.00;;;;;;;;4993746;28;45496;-74
2022/08/22 13:28:44;;;;;;;;;1.33;1.33;;;;;;;;4993835;28;45375;-74
2022/08/22 13:31:17;;;;;;;;;3.00;1.00;;;;;;;;4993561;28;45492;-73
2022/08/22 13:33:57;;;;;;;;;1.00;1.00;;;;;;;;4993369;28;46290;-74
2022/08/22 13:36:23;;;;;;;;;0.33;0.33;;;;;;;;4992946;28;45311;-74
2022/08/22 13:38:51;;;;;;;;;0.67;0.67;;;;;;;;5050483;28;45329;-73
2022/08/22 13:41:25;;;;;;;;;1.33;1.33;;;;;;;;5053288;28;45332;-75
2022/08/22 13:43:59;;;;;;;;;2.00;2.00;;;;;;;;5090152;27;46270;-76
2022/08/22 13:46:27;;;;;;;;;2.00;1.00;;;;;;;;5095972;27;45431;-76
2022/08/22 13:48:54;;;;;;;;;1.00;1.00;;;;;;;;5096349;27;45203;-75
2022/08/22 13:51:38;;;;;;;;;0.33;0.33;;;;;;;;5096073;27;45449;-75
2022/08/22 13:54:23;;;;;;;;;0.00;0.00;;;;;;;;5096129;27;46274;-75
2022/08/22 13:57:07;;;;;;;;;1.00;1.00;;;;;;;;5096351;27;45524;-75
2022/08/22 13:59:42;;;;;;;;;1.00;0.33;;;;;;;;5083128;27;45391;-75
2022/08/22 14:02:27;;;;;;;;;1.33;0.00;;;;;;;;5089940;27;45444;-75
2022/08/22 14:04:55;;;;;;;;;1.00;1.00;;;;;;;;5063939;28;47283;-75
2022/08/22 14:07:29;;;;;;;;;3.00;1.00;;;;;;;;5066697;27;45462;-75
2022/08/22 14:09:57;;;;;;;;;1.00;1.00;;;;;;;;5075930;27;45392;-76
2022/08/22 14:12:24;;;;;;;;;1.00;1.00;;;;;;;;5077396;27;45462;-75
2022/08/22 14:14:57;;;;;;;;;1.00;1.00;;;;;;;;5078918;27;46563;-76
2022/08/22 14:17:26;;;;;;;;;3.00;2.00;;;;;;;;5079098;27;45404;-76
2022/08/22 14:19:59;;;;;;;;;3.33;1.00;;;;;;;;5078948;27;45418;-77
2022/08/22 14:22:27;;;;;;;;;0.67;0.67;;;;;;;;5079210;27;45417;-76
2022/08/22 14:24:54;;;;;;;;;1.00;1.00;;;;;;;;5078769;27;47158;-77
2022/08/22 14:27:26;;;;;;;;;0.33;0.33;;;;;;;;5078651;27;45403;-76
2022/08/22 14:30:03;;;;;;;;;0.67;0.00;;;;;;;;5078777;27;45487;-76
2022/08/22 14:32:34;;;;;;;;;1.67;1.67;;;;;;;;5078890;27;45570;-75
2022/08/22 14:35:02;;;;;;;;;0.33;0.33;;;;;;;;5078189;27;47385;-76
2022/08/22 14:37:39;;;;;;;;;1.00;1.00;;;;;;;;5078690;27;45316;-76
2022/08/22 14:40:25;;;;;;;;;0.33;0.33;;;;;;;;5078095;27;45317;-76
2022/08/22 14:42:57;;;;;;;;;0.33;0.33;;;;;;;;5067532;28;45601;-76
2022/08/22 14:45:27;;;;;;;;;2.00;1.00;;;;;;;;5078217;27;46288;-74
2022/08/22 14:47:55;;;;;;;;;1.00;1.00;;;;;;;;5078541;28;45330;-77
2022/08/22 14:50:35;;;;;;;;;2.00;0.67;;;;;;;;5078531;27;45373;-74
2022/08/22 14:53:05;;;;;;;;;1.00;1.00;;;;;;;;5078478;27;45347;-76
2022/08/22 14:55:31;;;;;;;;;1.33;1.33;;;;;;;;5078335;27;46968;-75
2022/08/22 14:57:59;;;;;;;;;0.33;0.33;;;;;;;;5078591;28;45240;-76
2022/08/22 15:00:29;;;;;;;;;1.00;1.00;;;;;;;;5078648;27;45485;-74
2022/08/22 15:03:05;;;;;;;;;2.00;0.67;;;;;;;;5077559;27;45307;-75
2022/08/22 15:05:39;;;;;;;;;1.00;1.00;;;;;;;;5078080;27;47232;-75
2022/08/22 15:08:04;;;;;;;;;1.33;1.33;;;;;;;;5065227;27;45237;-76
2022/08/22 15:10:31;;;;;;;;;1.00;1.00;;;;;;;;5071470;27;45383;-77
2022/08/22 15:13:01;;;;;;;;;1.00;1.00;;;;;;;;5060047;27;45291;-76
2022/08/22 15:15:36;;;;;;;;;3.67;0.00;;;;;;;;5078122;28;46152;-76
2022/08/22 15:18:09;;;;;;;;;1.00;1.00;;;;;;;;5077859;27;45389;-76
2022/08/22 15:20:35;;;;;;;;;0.33;0.33;;;;;;;;5078523;27;45502;-76
2022/08/22 15:23:06;;;;;;;;;1.67;1.67;;;;;;;;5077956;27;45504;-76
2022/08/22 15:25:35;;;;;;;;;1.00;1.00;;;;;;;;5077811;27;47182;-74